createdAt,value
2022-08-19T00:00:27.500Z,27.70
2022-08-19T00:04:20.602Z,26.85
2022-08-19T00:07:25.034Z,27.23
2022-08-19T00:10:11.288Z,25.30
2022-08-19T00:12:48.736Z,27.17
2022-08-19T00:15:59.795Z,22.90
2022-08-19T00:19:01.996Z,30.85
2022-08-19T00:21:46.179Z,32.05
2022-08-19T00:24:50.711Z,24.73
2022-08-19T00:27:45.236Z,20.25
2022-08-19T00:38:39.531Z,28.67
2022-08-19T00:40:41.134Z,26.88
2022-08-19T00:43:14.451Z,20.75
2022-08-19T00:45:48.678Z,25.08
2022-08-19T00:48:42.266Z,25.02
2022-08-19T00:52:21.373Z,28.42
2022-08-19T01:00:02.608Z,28.98
2022-08-19T01:03:19.500Z,16.65
2022-08-19T01:05:59.228Z,21.00
2022-08-19T01:08:36.484Z,16.73
2022-08-19T01:11:43.817Z,17.45
2022-08-19T01:14:25.957Z,25.27
2022-08-19T01:16:56.566Z,15.73
2022-08-19T01:19:44.252Z,18.75
2022-08-19T01:23:03.317Z,16.30
2022-08-19T01:26:20.052Z,22.17
2022-08-19T01:28:49.781Z,16.00
2022-08-19T01:31:27.342Z,20.10
2022-08-19T01:34:01.482Z,19.02
2022-08-19T01:36:38.993Z,16.60
2022-08-19T01:42:10.522Z,19.00
2022-08-19T01:45:11.190Z,18.20
2022-08-19T01:48:51.750Z,31.20
2022-08-19T01:55:27.631Z,16.65
2022-08-19T01:59:16.314Z,10.45
2022-08-19T02:02:33.257Z,15.30
2022-08-19T02:05:11.924Z,14.18
2022-08-19T02:11:08.738Z,12.57
2022-08-19T02:13:57.142Z,14.05
2022-08-19T02:16:44.470Z,15.80
2022-08-19T02:22:27.224Z,20.60
2022-08-19T02:25:11.974Z,12.75
2022-08-19T02:27:41.422Z,15.15
2022-08-19T02:30:14.135Z,17.63
2022-08-19T02:32:54.432Z,13.10
2022-08-19T02:35:28.353Z,20.73
2022-08-19T02:38:39.595Z,13.48
2022-08-19T02:41:39.807Z,17.98
2022-08-19T02:44:35.390Z,99.15
2022-08-19T02:47:31.698Z,39.90
2022-08-19T02:50:16.746Z,31.63
2022-08-19T02:52:43.811Z,20.30
2022-08-19T02:55:11.101Z,23.90
2022-08-19T02:57:38.833Z,8.13
2022-08-19T03:00:07.732Z,6.88
2022-08-19T03:02:34.953Z,8.85
2022-08-19T03:05:04.314Z,6.20
2022-08-19T03:07:31.645Z,10.07
2022-08-19T03:09:58.853Z,5.43
2022-08-19T03:12:26.209Z,3.00
2022-08-19T03:14:53.853Z,4.90
2022-08-19T03:17:24.427Z,5.35
2022-08-19T03:19:55.019Z,11.85
2022-08-19T03:22:22.063Z,13.88
2022-08-19T03:24:49.200Z,10.73
2022-08-19T03:27:16.490Z,5.43
2022-08-19T03:29:44.536Z,3.92
2022-08-19T03:32:29.692Z,6.07
2022-08-19T03:34:59.318Z,18.45
2022-08-19T03:37:29.657Z,5.38
2022-08-19T03:39:56.778Z,5.82
2022-08-19T03:42:32.183Z,9.57
2022-08-19T03:45:08.164Z,8.68
2022-08-19T03:47:46.278Z,11.02
2022-08-19T03:50:28.056Z,7.93
2022-08-19T03:59:19.747Z,10.88
2022-08-19T04:02:58.236Z,13.65
2022-08-19T04:07:58.551Z,12.13
2022-08-19T04:20:53.648Z,16.20
2022-08-19T04:26:48.321Z,16.58
2022-08-19T04:30:43.479Z,12.98
2022-08-19T04:42:40.870Z,18.33
2022-08-19T04:45:13.863Z,20.23
2022-08-19T04:47:47.552Z,23.85
2022-08-19T04:50:19.639Z,26.95
2022-08-19T04:52:51.821Z,24.90
2022-08-19T04:55:19.229Z,35.17
2022-08-19T04:57:46.315Z,32.28
2022-08-19T05:00:16.093Z,34.22
2022-08-19T05:03:11.140Z,29.30
2022-08-19T05:06:26.573Z,29.42
2022-08-19T05:08:53.898Z,26.90
2022-08-19T05:12:28.761Z,34.85
2022-08-19T05:14:58.429Z,27.75
2022-08-19T05:17:28.406Z,32.30
2022-08-19T05:20:15.862Z,17.85
2022-08-19T05:22:45.154Z,13.27
2022-08-19T05:25:16.774Z,12.50
2022-08-19T05:27:44.015Z,10.20
2022-08-19T05:30:13.128Z,7.38
2022-08-19T05:32:43.544Z,13.82
2022-08-19T05:35:16.678Z,8.25
2022-08-19T05:37:46.893Z,6.50
2022-08-19T05:40:20.296Z,4.75
2022-08-19T05:42:55.139Z,3.33
2022-08-19T05:46:02.104Z,13.68
2022-08-19T05:48:32.451Z,6.78
2022-08-19T05:51:06.817Z,6.05
2022-08-19T05:53:34.799Z,4.40
2022-08-19T05:56:51.113Z,5.60
2022-08-19T05:59:53.131Z,5.75
2022-08-19T06:02:34.375Z,5.05
2022-08-19T06:05:25.931Z,7.88
2022-08-19T06:07:53.203Z,4.38
2022-08-19T06:10:22.663Z,5.32
2022-08-19T06:16:12.381Z,6.78
2022-08-19T06:18:46.068Z,6.70
2022-08-19T06:21:19.853Z,4.60
2022-08-19T06:23:53.183Z,3.42
2022-08-19T06:26:23.466Z,3.88
2022-08-19T06:28:54.098Z,8.73
2022-08-19T06:48:34.652Z,3.95
2022-08-19T06:56:37.469Z,4.07
2022-08-19T07:05:00.228Z,3.50
2022-08-19T07:07:29.508Z,1.60
2022-08-19T07:09:59.946Z,1.75
2022-08-19T07:12:35.412Z,2.05
2022-08-19T07:18:12.380Z,2.65
2022-08-19T07:21:15.638Z,4.80
2022-08-19T07:23:59.543Z,2.40
2022-08-19T07:26:47.251Z,6.18
2022-08-19T07:29:20.428Z,3.10
2022-08-19T07:31:52.448Z,2.95
2022-08-19T07:34:23.881Z,1.20
2022-08-19T07:37:01.514Z,4.82
2022-08-19T07:39:42.281Z,1.83
2022-08-19T07:42:22.471Z,1.83
2022-08-19T07:44:50.924Z,1.25
2022-08-19T07:47:49.137Z,0.80
2022-08-19T07:50:12.350Z,4.47
2022-08-19T07:52:40.674Z,2.03
2022-08-19T07:55:11.311Z,2.60
2022-08-19T07:57:57.114Z,1.23
2022-08-19T08:00:24.390Z,2.15
2022-08-19T08:02:55.375Z,0.70
2022-08-19T08:05:43.969Z,1.95
2022-08-19T08:08:32.015Z,1.40
2022-08-19T08:11:00.433Z,1.08
2022-08-19T08:13:28.207Z,3.17
2022-08-19T08:15:57.909Z,3.55
2022-08-19T08:18:28.146Z,1.77
2022-08-19T08:20:58.333Z,1.25
2022-08-19T08:23:29.660Z,3.35
2022-08-19T08:25:58.918Z,2.03
2022-08-19T08:28:29.306Z,1.13
2022-08-19T08:30:59.145Z,3.53
2022-08-19T08:33:34.235Z,8.80
2022-08-19T08:36:05.179Z,5.82
2022-08-19T08:38:38.902Z,2.65
2022-08-19T08:41:32.666Z,3.65
2022-08-19T08:43:59.894Z,4.22
2022-08-19T08:46:41.021Z,4.80
2022-08-19T08:49:17.086Z,4.93
2022-08-19T08:51:48.565Z,3.88
2022-08-19T08:54:32.001Z,3.33
2022-08-19T08:57:04.638Z,3.13
2022-08-19T08:59:34.423Z,0.85
2022-08-19T09:02:01.578Z,1.75
2022-08-19T09:04:28.949Z,2.50
2022-08-19T09:07:34.769Z,8.90
2022-08-19T09:10:11.751Z,4.82
2022-08-19T09:13:25.102Z,3.33
2022-08-19T09:16:02.512Z,12.73
2022-08-19T09:19:02.741Z,7.10
2022-08-19T09:21:33.313Z,3.47
2022-08-19T09:24:03.452Z,4.63
2022-08-19T09:26:47.251Z,2.50
2022-08-19T09:29:15.613Z,8.52
2022-08-19T09:31:44.777Z,4.20
2022-08-19T09:34:21.113Z,1.88
2022-08-19T09:36:54.006Z,0.98
2022-08-19T09:39:21.843Z,3.65
2022-08-19T09:41:50.849Z,2.70
2022-08-19T09:44:18.983Z,1.10
2022-08-19T09:46:48.271Z,4.55
2022-08-19T09:49:18.314Z,5.55
2022-08-19T09:51:51.305Z,9.93
2022-08-19T09:56:51.045Z,2.95
2022-08-19T09:59:18.074Z,4.03
2022-08-19T10:01:44.851Z,2.47
2022-08-19T10:04:20.280Z,2.75
2022-08-19T10:06:53.825Z,4.25
2022-08-19T10:09:33.533Z,5.18
2022-08-19T10:12:02.635Z,6.03
2022-08-19T10:14:30.569Z,3.20
2022-08-19T10:16:59.189Z,4.90
2022-08-19T10:19:26.808Z,1.67
2022-08-19T10:21:54.448Z,4.05
2022-08-19T10:24:28.461Z,2.58
2022-08-19T10:26:56.021Z,3.90
2022-08-19T10:29:32.265Z,2.20
2022-08-19T10:32:09.709Z,2.50
2022-08-19T10:34:38.428Z,7.40
2022-08-19T10:37:23.621Z,7.32
2022-08-19T10:39:51.673Z,4.40
2022-08-19T10:42:19.701Z,3.58
2022-08-19T10:44:47.720Z,6.20
2022-08-19T10:47:17.188Z,3.45
2022-08-19T10:50:30.150Z,3.72
2022-08-19T10:52:57.088Z,6.93
2022-08-19T10:55:43.749Z,7.05
2022-08-19T10:58:13.356Z,3.42
2022-08-19T11:00:41.516Z,5.22
2022-08-19T11:03:09.402Z,3.53
2022-08-19T11:05:40.360Z,2.90
2022-08-19T11:08:22.634Z,6.05
2022-08-19T11:10:56.375Z,4.72
2022-08-19T11:13:24.264Z,5.43
2022-08-19T11:16:07.134Z,4.88
2022-08-19T11:21:14.933Z,3.55
2022-08-19T11:23:42.014Z,2.70
2022-08-19T11:26:08.984Z,5.95
2022-08-19T11:28:36.731Z,4.78
2022-08-19T11:31:05.075Z,5.18
2022-08-19T11:33:32.496Z,6.15
2022-08-19T11:36:00.356Z,2.65
2022-08-19T11:38:27.904Z,3.60
2022-08-19T11:40:59.779Z,2.42
2022-08-19T11:43:27.749Z,3.85
2022-08-19T11:45:56.248Z,2.72
2022-08-19T11:48:24.021Z,2.65
2022-08-19T11:50:51.961Z,2.25
2022-08-19T11:53:20.245Z,2.30
2022-08-19T11:55:48.526Z,5.63
2022-08-19T11:58:18.897Z,6.97
2022-08-19T12:00:46.145Z,3.80
2022-08-19T12:03:13.981Z,6.05
2022-08-19T12:05:41.911Z,4.88
2022-08-19T12:08:09.016Z,2.83
2022-08-19T12:10:36.299Z,3.35
2022-08-19T12:13:03.429Z,5.80
2022-08-19T12:15:37.000Z,6.80
2022-08-19T12:18:05.927Z,7.43
2022-08-19T12:20:38.785Z,2.75
2022-08-19T12:23:06.252Z,6.10
2022-08-19T12:25:33.896Z,8.02
2022-08-19T12:28:01.237Z,6.53
2022-08-19T12:30:28.825Z,2.42
2022-08-19T12:32:56.059Z,6.28
2022-08-19T12:35:24.797Z,1.83
2022-08-19T12:37:56.959Z,1.67
2022-08-19T12:40:27.491Z,2.63
2022-08-19T12:42:55.206Z,4.43
2022-08-19T12:45:22.588Z,1.10
2022-08-19T12:47:50.471Z,1.77
2022-08-19T12:50:22.454Z,7.18
2022-08-19T12:52:50.018Z,4.78
2022-08-19T12:55:19.519Z,2.78
2022-08-19T12:57:46.418Z,5.38
2022-08-19T13:00:17.678Z,4.40
2022-08-19T13:02:47.523Z,2.97
2022-08-19T13:05:16.944Z,5.85
2022-08-19T13:07:44.968Z,3.15
2022-08-19T13:10:16.277Z,5.63
2022-08-19T13:12:44.992Z,5.55
2022-08-19T13:15:15.253Z,9.95
2022-08-19T13:17:43.123Z,4.68
2022-08-19T13:20:11.721Z,7.13
2022-08-19T13:22:39.376Z,7.57
2022-08-19T13:25:07.471Z,5.38
2022-08-19T13:27:34.450Z,4.90
2022-08-19T13:30:21.620Z,5.70
2022-08-19T13:33:08.962Z,2.95
2022-08-19T13:35:35.783Z,2.28
2022-08-19T13:38:05.673Z,10.23
2022-08-19T13:40:41.188Z,14.07
2022-08-19T13:43:12.429Z,7.20
2022-08-19T13:45:50.097Z,2.08
2022-08-19T13:48:19.119Z,5.40
2022-08-19T13:50:48.286Z,1.55
2022-08-19T13:53:15.460Z,4.60
2022-08-19T13:55:43.272Z,1.88
2022-08-19T13:58:11.656Z,11.85
2022-08-19T14:00:41.294Z,2.47
2022-08-19T14:03:09.394Z,5.45
2022-08-19T14:05:37.439Z,6.28
2022-08-19T14:08:04.703Z,5.80
2022-08-19T14:10:32.636Z,1.95
2022-08-19T14:13:01.232Z,1.50
2022-08-19T14:15:28.961Z,1.85
2022-08-19T14:17:56.346Z,1.77
2022-08-19T14:20:25.907Z,1.55
2022-08-19T14:22:55.627Z,10.00
2022-08-19T14:25:27.397Z,4.45
2022-08-19T14:27:54.367Z,3.83
2022-08-19T14:30:27.742Z,2.15
2022-08-19T14:32:56.289Z,3.55
2022-08-19T14:35:23.875Z,2.95
2022-08-19T14:37:51.873Z,2.75
2022-08-19T14:40:23.300Z,1.83
2022-08-19T14:42:50.414Z,5.28
2022-08-19T14:45:17.201Z,4.20
2022-08-19T14:47:46.134Z,10.55
2022-08-19T14:50:18.265Z,4.97
2022-08-19T14:52:49.623Z,2.20
2022-08-19T14:55:18.145Z,3.15
2022-08-19T14:57:45.718Z,4.60
2022-08-19T15:00:15.921Z,3.33
2022-08-19T15:02:45.110Z,3.28
2022-08-19T15:05:13.077Z,4.35
2022-08-19T15:07:40.396Z,2.05
2022-08-19T15:10:08.599Z,7.28
2022-08-19T15:12:35.637Z,4.72
2022-08-19T15:15:05.789Z,3.13
2022-08-19T15:17:46.097Z,10.95
2022-08-19T15:20:21.908Z,4.63
2022-08-19T15:22:49.678Z,2.53
2022-08-19T15:25:19.565Z,3.80
2022-08-19T15:27:46.707Z,3.13
2022-08-19T15:30:23.509Z,2.17
2022-08-19T15:32:50.982Z,2.60
2022-08-19T15:35:19.413Z,3.17
2022-08-19T15:37:49.511Z,4.55
2022-08-19T15:40:17.597Z,9.20
2022-08-19T15:42:44.964Z,3.55
2022-08-19T15:45:13.160Z,3.88
2022-08-19T15:47:40.570Z,8.48
2022-08-19T15:50:15.339Z,2.17
2022-08-19T15:52:49.528Z,4.15
2022-08-19T15:55:33.624Z,4.30
2022-08-19T15:58:29.215Z,3.58
2022-08-19T16:01:18.838Z,11.32
2022-08-19T16:04:14.238Z,2.35
2022-08-19T16:06:49.538Z,3.55
2022-08-19T16:09:17.454Z,7.78
2022-08-19T16:11:46.513Z,1.83
2022-08-19T16:14:18.559Z,3.00
2022-08-19T16:16:47.233Z,8.38
2022-08-19T16:19:18.132Z,3.05
2022-08-19T16:21:47.450Z,11.65
2022-08-19T16:24:17.521Z,9.75
2022-08-19T16:26:45.058Z,1.65
2022-08-19T16:29:13.219Z,5.47
2022-08-19T16:31:43.625Z,6.63
2022-08-19T16:34:11.388Z,4.03
2022-08-19T16:36:41.829Z,4.43
2022-08-19T16:39:11.599Z,4.93
2022-08-19T16:41:39.710Z,2.67
2022-08-19T16:44:09.967Z,2.67
2022-08-19T16:46:43.395Z,8.77
2022-08-19T16:49:11.122Z,2.90
2022-08-19T16:51:39.273Z,5.38
2022-08-19T16:54:06.613Z,3.63
2022-08-19T16:56:34.156Z,2.78
2022-08-19T16:59:01.226Z,3.80
2022-08-19T17:01:28.664Z,3.75
2022-08-19T17:03:56.713Z,7.57
2022-08-19T17:06:26.981Z,8.48
2022-08-19T17:08:56.372Z,3.33
2022-08-19T17:11:24.458Z,1.98
2022-08-19T17:13:51.556Z,3.58
2022-08-19T17:16:24.649Z,4.00
2022-08-19T17:21:22.542Z,5.70
2022-08-19T17:23:49.556Z,14.30
2022-08-19T17:26:18.577Z,8.45
2022-08-19T17:28:50.766Z,6.95
2022-08-19T17:31:20.028Z,8.90
2022-08-19T17:33:48.756Z,7.95
2022-08-19T17:36:23.369Z,3.47
2022-08-19T17:38:51.502Z,6.55
2022-08-19T17:41:18.905Z,11.20
2022-08-19T17:43:45.777Z,10.25
2022-08-19T17:46:18.697Z,14.50
2022-08-19T17:51:19.008Z,7.22
2022-08-19T17:53:50.914Z,11.07
2022-08-19T17:56:18.440Z,6.68
2022-08-19T17:58:48.983Z,8.80
2022-08-19T18:01:26.503Z,9.40
2022-08-19T18:03:56.267Z,6.97
2022-08-19T18:06:23.360Z,6.22
2022-08-19T18:08:50.438Z,4.30
2022-08-19T18:11:17.372Z,11.40
2022-08-19T18:13:44.298Z,5.97
2022-08-19T18:16:12.459Z,13.55
2022-08-19T18:18:41.848Z,7.25
2022-08-19T18:21:09.854Z,12.05
2022-08-19T18:23:44.874Z,4.03
2022-08-19T18:26:12.795Z,2.67
2022-08-19T18:28:39.899Z,9.38
2022-08-19T18:31:17.140Z,16.30
2022-08-19T18:33:45.032Z,11.43
2022-08-19T18:36:12.162Z,11.80
2022-08-19T18:38:57.472Z,14.93
2022-08-19T18:41:43.509Z,8.50
2022-08-19T18:44:28.826Z,11.38
2022-08-19T18:47:14.274Z,9.35
2022-08-19T18:49:41.043Z,7.10
2022-08-19T18:52:07.829Z,20.98
2022-08-19T18:54:35.693Z,7.78
2022-08-19T18:57:05.575Z,7.68
2022-08-19T18:59:32.828Z,11.32
2022-08-19T19:02:00.484Z,15.30
2022-08-19T19:04:31.076Z,7.47
2022-08-19T19:06:58.501Z,9.73
2022-08-19T19:09:26.234Z,13.23
2022-08-19T19:11:59.145Z,8.02
2022-08-19T19:14:50.563Z,6.00
2022-08-19T19:17:17.615Z,4.00
2022-08-19T19:19:45.235Z,10.75
2022-08-19T19:22:18.868Z,6.30
2022-08-19T19:24:48.731Z,8.68
2022-08-19T19:27:18.465Z,12.38
2022-08-19T19:29:48.487Z,7.80
2022-08-19T19:32:22.755Z,14.70
2022-08-19T19:34:50.068Z,5.53
2022-08-19T19:37:17.316Z,12.77
2022-08-19T19:39:46.381Z,8.68
2022-08-19T19:42:20.520Z,7.90
2022-08-19T19:44:55.395Z,10.57
2022-08-19T19:47:28.619Z,17.08
2022-08-19T19:50:14.675Z,9.80
2022-08-19T19:52:45.736Z,11.15
2022-08-19T19:55:18.106Z,14.77
2022-08-19T19:57:46.953Z,6.47
2022-08-19T20:00:18.881Z,10.15
2022-08-19T20:02:50.072Z,8.02
2022-08-19T20:05:21.733Z,7.78
2022-08-19T20:08:09.309Z,16.45
2022-08-19T20:10:59.200Z,6.63
2022-08-19T20:13:36.424Z,10.68
2022-08-19T20:16:13.288Z,14.13
2022-08-19T20:18:49.628Z,7.07
2022-08-19T20:21:16.571Z,11.13
2022-08-19T20:24:09.378Z,12.70
2022-08-19T20:26:50.372Z,24.25
2022-08-19T20:29:39.124Z,17.58
2022-08-19T20:32:09.964Z,8.55
2022-08-19T20:34:37.322Z,13.07
2022-08-19T20:37:28.636Z,18.23
2022-08-19T20:39:55.946Z,20.90
2022-08-19T20:42:45.723Z,11.63
2022-08-19T20:45:33.007Z,9.98
2022-08-19T20:48:06.000Z,18.48
2022-08-19T20:53:42.561Z,15.40
2022-08-19T20:56:21.107Z,13.98
2022-08-19T20:58:52.260Z,23.58
2022-08-19T21:01:30.736Z,9.45
2022-08-19T21:04:00.802Z,8.32
2022-08-19T21:06:29.865Z,9.05
2022-08-19T21:08:56.793Z,9.43
2022-08-19T21:11:24.093Z,11.95
2022-08-19T21:14:10.415Z,6.83
2022-08-19T21:16:52.032Z,9.35
2022-08-19T21:19:25.104Z,19.08
2022-08-19T21:21:55.529Z,17.40
2022-08-19T21:24:43.248Z,12.10
2022-08-19T21:27:10.721Z,11.15
2022-08-19T21:29:40.254Z,10.45
2022-08-19T21:32:15.608Z,12.43
2022-08-19T21:34:46.953Z,16.42
2022-08-19T21:37:18.999Z,12.73
2022-08-19T21:39:53.379Z,15.50
2022-08-19T21:42:22.005Z,15.32
2022-08-19T21:44:56.697Z,9.40
2022-08-19T21:47:23.877Z,11.38
2022-08-19T21:49:51.119Z,8.60
2022-08-19T21:52:23.361Z,16.00
2022-08-19T21:55:25.000Z,13.00
2022-08-19T21:58:05.560Z,14.20
2022-08-19T22:00:38.439Z,16.38
2022-08-19T22:03:06.488Z,10.63
2022-08-19T22:05:52.428Z,8.90
2022-08-19T22:08:22.805Z,18.23
2022-08-19T22:11:07.399Z,25.55
2022-08-19T22:13:39.889Z,22.52
2022-08-19T22:16:09.538Z,10.73
2022-08-19T22:18:44.696Z,23.17
2022-08-19T22:21:14.942Z,9.73
2022-08-19T22:27:23.486Z,15.60
2022-08-19T22:29:58.310Z,12.45
2022-08-19T22:32:32.598Z,10.63
2022-08-19T22:35:32.689Z,9.05
2022-08-19T22:38:10.843Z,10.63
2022-08-19T22:40:40.774Z,9.73
2022-08-19T22:43:27.661Z,11.00
2022-08-19T22:45:58.384Z,13.32
2022-08-19T22:48:27.988Z,11.88
2022-08-19T22:51:14.481Z,8.30
2022-08-19T22:53:47.245Z,8.05
2022-08-19T22:56:18.026Z,10.75
2022-08-19T22:58:46.639Z,10.02
2022-08-19T23:01:27.292Z,9.75
2022-08-19T23:04:03.998Z,9.23
2022-08-19T23:06:33.763Z,9.95
2022-08-19T23:09:24.319Z,11.65
2022-08-19T23:12:03.214Z,9.60
2022-08-19T23:14:53.843Z,8.68
2022-08-19T23:17:59.733Z,13.65
2022-08-19T23:20:39.187Z,12.13
2022-08-19T23:23:24.619Z,16.85
2022-08-19T23:26:06.446Z,8.43
2022-08-19T23:33:01.398Z,7.47
2022-08-19T23:40:00.464Z,8.25
2022-08-19T23:43:37.893Z,10.50
2022-08-19T23:46:54.397Z,7.07
2022-08-19T23:49:26.219Z,9.43
2022-08-19T23:51:54.638Z,9.07
2022-08-19T23:54:43.070Z,17.30
